createdAt,value
2017-10-26T00:01:09.685Z,11.83
2017-10-26T00:03:37.215Z,14.37
2017-10-26T00:06:04.762Z,11.83
2017-10-26T00:08:33.160Z,14.33
2017-10-26T00:11:00.671Z,12.53
2017-10-26T00:13:28.230Z,12.37
2017-10-26T00:15:55.757Z,13.50
2017-10-26T00:18:23.283Z,13.13
2017-10-26T00:20:51.922Z,15.20
2017-10-26T00:23:19.444Z,12.50
2017-10-26T00:25:48.324Z,11.63
2017-10-26T00:28:15.875Z,12.53
2017-10-26T00:30:44.150Z,15.27
2017-10-26T00:33:12.443Z,16.90
2017-10-26T00:35:40.353Z,13.83
2017-10-26T00:38:07.868Z,10.43
2017-10-26T00:40:35.652Z,10.30
2017-10-26T00:43:03.186Z,12.43
2017-10-26T00:45:30.718Z,13.10
2017-10-26T00:47:58.683Z,10.80
2017-10-26T00:50:26.222Z,15.47
2017-10-26T00:52:53.725Z,12.13
2017-10-26T00:55:22.004Z,14.00
2017-10-26T00:57:51.214Z,14.60
2017-10-26T01:00:18.794Z,10.20
2017-10-26T01:02:46.310Z,17.80
2017-10-26T01:05:14.756Z,17.07
2017-10-26T01:07:43.067Z,12.50
2017-10-26T01:10:11.362Z,14.67
2017-10-26T01:12:39.180Z,11.27
2017-10-26T01:15:06.834Z,13.50
2017-10-26T01:17:34.911Z,11.33
2017-10-26T01:20:02.525Z,10.97
2017-10-26T01:22:30.045Z,9.47
2017-10-26T01:24:57.938Z,11.83
2017-10-26T01:27:26.242Z,14.17
2017-10-26T01:29:54.426Z,13.00
2017-10-26T01:32:22.049Z,13.40
2017-10-26T01:34:51.008Z,10.40
2017-10-26T01:37:18.844Z,13.37
2017-10-26T01:39:46.379Z,11.20
2017-10-26T01:42:14.044Z,11.23
2017-10-26T01:44:41.932Z,14.70
2017-10-26T01:47:09.484Z,11.13
2017-10-26T01:49:37.050Z,12.20
2017-10-26T01:52:04.559Z,11.93
2017-10-26T01:54:32.081Z,13.97
2017-10-26T01:57:00.961Z,12.47
2017-10-26T01:59:28.719Z,9.70
2017-10-26T02:01:56.504Z,11.70
2017-10-26T02:04:25.236Z,9.37
2017-10-26T02:06:52.791Z,12.10
2017-10-26T02:09:22.168Z,8.93
2017-10-26T02:11:49.695Z,13.83
2017-10-26T02:14:17.215Z,9.20
2017-10-26T02:16:45.524Z,10.20
2017-10-26T02:19:13.051Z,14.00
2017-10-26T02:21:41.336Z,10.70
2017-10-26T02:24:09.469Z,10.47
2017-10-26T02:26:36.995Z,12.73
2017-10-26T02:29:16.466Z,11.00
2017-10-26T02:31:44.240Z,8.87
2017-10-26T02:34:11.758Z,9.53
2017-10-26T02:36:39.304Z,8.53
2017-10-26T02:39:06.896Z,10.00
2017-10-26T02:41:34.395Z,13.63
2017-10-26T02:44:02.705Z,11.77
2017-10-26T02:46:30.232Z,12.30
2017-10-26T02:48:58.507Z,9.63
2017-10-26T02:51:27.949Z,9.30
2017-10-26T02:53:55.957Z,8.73
2017-10-26T02:56:23.491Z,11.43
2017-10-26T02:58:51.038Z,8.77
2017-10-26T03:01:18.565Z,11.13
2017-10-26T03:03:46.844Z,10.40
2017-10-26T03:06:15.129Z,10.63
2017-10-26T03:08:43.395Z,17.53
2017-10-26T03:11:12.810Z,10.00
2017-10-26T03:13:40.334Z,10.27
2017-10-26T03:16:07.850Z,16.37
2017-10-26T03:18:36.085Z,11.93
2017-10-26T03:21:03.662Z,10.33
2017-10-26T03:23:31.975Z,13.87
2017-10-26T03:25:59.496Z,13.10
2017-10-26T03:28:27.811Z,11.17
2017-10-26T03:30:55.337Z,10.93
2017-10-26T03:33:23.603Z,9.43
2017-10-26T03:35:51.316Z,10.77
2017-10-26T03:38:18.833Z,10.30
2017-10-26T03:40:46.353Z,11.03
2017-10-26T03:43:13.905Z,14.93
2017-10-26T03:45:41.578Z,10.70
2017-10-26T03:48:09.406Z,12.23
2017-10-26T03:50:37.139Z,12.33
2017-10-26T03:53:05.419Z,14.10
2017-10-26T03:55:32.947Z,11.93
2017-10-26T03:58:00.462Z,11.73
2017-10-26T04:00:27.992Z,13.83
2017-10-26T04:02:55.556Z,17.13
2017-10-26T04:05:23.605Z,15.13
2017-10-26T04:07:51.212Z,10.70
2017-10-26T04:10:18.713Z,12.23
2017-10-26T04:12:46.244Z,12.23
2017-10-26T04:15:13.763Z,12.27
2017-10-26T04:17:41.277Z,9.47
2017-10-26T04:20:09.392Z,13.20
2017-10-26T04:22:36.930Z,10.03
2017-10-26T04:25:05.205Z,12.53
2017-10-26T04:27:32.778Z,11.47
2017-10-26T04:30:00.327Z,15.27
2017-10-26T04:32:27.901Z,12.00
2017-10-26T04:34:55.437Z,12.50
2017-10-26T04:37:23.076Z,10.80
2017-10-26T04:39:50.584Z,11.57
2017-10-26T04:42:18.127Z,11.80
2017-10-26T04:44:46.422Z,13.53
2017-10-26T04:47:15.066Z,11.00
2017-10-26T04:49:42.629Z,13.17
2017-10-26T04:52:10.128Z,11.97
2017-10-26T04:54:37.631Z,12.80
2017-10-26T04:57:05.551Z,11.83
2017-10-26T04:59:33.109Z,11.70
2017-10-26T05:02:00.633Z,16.47
2017-10-26T05:04:28.189Z,13.60
2017-10-26T05:06:57.395Z,11.40
2017-10-26T05:09:25.691Z,12.73
2017-10-26T05:11:53.996Z,17.40
2017-10-26T05:14:22.995Z,12.67
2017-10-26T05:16:51.025Z,14.77
2017-10-26T05:19:19.466Z,15.70
2017-10-26T05:21:46.961Z,14.20
2017-10-26T05:24:15.220Z,20.80
2017-10-26T05:26:43.513Z,15.20
2017-10-26T05:29:11.799Z,15.90
2017-10-26T05:31:40.111Z,15.43
2017-10-26T05:34:07.894Z,17.13
2017-10-26T05:36:35.416Z,17.63
2017-10-26T05:39:02.928Z,16.53
2017-10-26T05:41:30.461Z,20.60
2017-10-26T05:43:57.979Z,20.33
2017-10-26T05:46:26.083Z,19.10
2017-10-26T05:48:53.981Z,17.77
2017-10-26T05:51:21.509Z,16.90
2017-10-26T05:53:49.019Z,19.03
2017-10-26T05:56:16.575Z,17.33
2017-10-26T05:58:44.461Z,17.57
2017-10-26T06:01:12.027Z,20.90
2017-10-26T06:03:39.613Z,30.40
2017-10-26T06:06:07.165Z,19.90
2017-10-26T06:08:34.732Z,19.67
2017-10-26T06:11:02.261Z,18.60
2017-10-26T06:13:29.830Z,25.17
2017-10-26T06:15:57.336Z,19.47
2017-10-26T06:18:24.857Z,27.70
2017-10-26T06:20:52.633Z,24.07
2017-10-26T06:23:20.169Z,21.90
2017-10-26T06:25:47.705Z,29.80
2017-10-26T06:28:16.032Z,26.30
2017-10-26T06:30:44.261Z,21.10
2017-10-26T06:33:13.824Z,24.33
2017-10-26T06:35:42.087Z,23.43
2017-10-26T06:38:10.260Z,23.03
2017-10-26T06:40:38.844Z,23.50
2017-10-26T06:43:06.955Z,28.63
2017-10-26T06:45:36.887Z,27.23
2017-10-26T06:48:05.165Z,23.17
2017-10-26T06:50:33.469Z,22.47
2017-10-26T06:53:01.013Z,25.13
2017-10-26T06:55:29.280Z,29.97
2017-10-26T06:57:57.597Z,27.50
2017-10-26T07:00:25.109Z,30.20
2017-10-26T07:02:52.916Z,27.77
2017-10-26T07:05:20.468Z,21.63
2017-10-26T07:07:47.999Z,23.77
2017-10-26T07:10:15.513Z,29.80
2017-10-26T07:12:44.492Z,28.97
2017-10-26T07:15:12.021Z,29.23
2017-10-26T07:17:40.289Z,27.83
2017-10-26T07:20:08.589Z,27.73
2017-10-26T07:22:36.127Z,24.90
2017-10-26T07:25:05.412Z,24.53
2017-10-26T07:27:33.015Z,22.97
2017-10-26T07:30:00.521Z,25.57
2017-10-26T07:32:28.057Z,29.80
2017-10-26T07:34:55.601Z,26.53
2017-10-26T07:37:23.117Z,26.17
2017-10-26T07:39:51.889Z,27.90
2017-10-26T07:42:19.445Z,25.03
2017-10-26T07:44:46.963Z,24.77
2017-10-26T07:47:14.495Z,25.93
2017-10-26T07:49:43.312Z,28.43
2017-10-26T07:52:10.872Z,32.63
2017-10-26T07:54:39.208Z,33.43
2017-10-26T07:57:06.779Z,30.50
2017-10-26T07:59:35.055Z,28.57
2017-10-26T08:02:03.357Z,29.67
2017-10-26T08:04:30.900Z,29.33
2017-10-26T08:06:58.423Z,28.50
2017-10-26T08:09:25.916Z,31.23
2017-10-26T08:11:53.458Z,30.67
2017-10-26T08:14:21.105Z,26.40
2017-10-26T08:16:49.147Z,30.80
2017-10-26T08:19:16.687Z,27.57
2017-10-26T08:21:44.198Z,28.93
2017-10-26T08:24:12.844Z,26.07
2017-10-26T08:26:40.559Z,26.40
2017-10-26T08:29:08.849Z,27.63
2017-10-26T08:31:36.396Z,27.63
2017-10-26T08:34:03.963Z,29.93
2017-10-26T08:36:31.489Z,31.63
2017-10-26T08:38:59.025Z,28.70
2017-10-26T08:41:26.842Z,34.30
2017-10-26T08:43:55.117Z,29.80
2017-10-26T08:46:22.648Z,24.10
2017-10-26T08:48:50.654Z,30.13
2017-10-26T08:51:18.240Z,28.97
2017-10-26T08:53:45.768Z,35.10
2017-10-26T08:56:13.335Z,38.10
2017-10-26T08:58:40.853Z,27.27
2017-10-26T09:01:08.934Z,30.47
2017-10-26T09:03:38.132Z,32.47
2017-10-26T09:06:05.646Z,30.97
2017-10-26T09:08:33.183Z,32.33
2017-10-26T09:11:00.701Z,31.73
2017-10-26T09:13:28.227Z,39.40
2017-10-26T09:15:55.756Z,31.50
2017-10-26T09:18:23.300Z,31.17
2017-10-26T09:20:51.577Z,30.13
2017-10-26T09:23:20.473Z,35.47
2017-10-26T09:25:48.071Z,33.90
2017-10-26T09:28:15.817Z,34.53
2017-10-26T09:30:43.886Z,41.60
2017-10-26T09:33:17.532Z,35.37
2017-10-26T09:35:45.839Z,35.83
2017-10-26T09:38:14.121Z,39.97
2017-10-26T09:40:42.439Z,36.27
2017-10-26T09:43:09.962Z,33.23
2017-10-26T09:45:38.238Z,34.60
2017-10-26T09:48:06.566Z,37.70
2017-10-26T09:50:34.074Z,32.80
2017-10-26T09:53:02.352Z,34.20
2017-10-26T09:55:30.671Z,31.07
2017-10-26T09:57:59.341Z,31.63
2017-10-26T10:00:26.845Z,35.43
2017-10-26T10:02:54.472Z,35.30
2017-10-26T10:05:22.269Z,36.13
2017-10-26T10:07:49.797Z,34.60
2017-10-26T10:10:17.364Z,31.00
2017-10-26T10:12:44.896Z,31.10
2017-10-26T10:15:12.421Z,31.37
2017-10-26T10:17:42.090Z,31.63
2017-10-26T10:20:09.624Z,34.57
2017-10-26T10:22:37.135Z,28.37
2017-10-26T10:25:05.522Z,30.07
2017-10-26T10:27:33.081Z,28.00
2017-10-26T10:30:00.802Z,28.23
2017-10-26T10:32:28.327Z,34.90
2017-10-26T10:34:57.206Z,26.27
2017-10-26T10:37:24.925Z,30.77
2017-10-26T10:39:53.800Z,28.73
2017-10-26T10:42:22.109Z,28.17
2017-10-26T10:44:49.988Z,31.13
2017-10-26T10:47:17.547Z,27.03
2017-10-26T10:49:45.084Z,28.00
2017-10-26T10:52:12.610Z,29.17
2017-10-26T10:54:40.163Z,29.47
2017-10-26T10:57:07.687Z,26.17
2017-10-26T10:59:41.013Z,27.70
2017-10-26T11:02:08.540Z,30.90
2017-10-26T11:04:36.065Z,31.10
2017-10-26T11:07:03.613Z,30.57
2017-10-26T11:09:31.143Z,32.07
2017-10-26T11:11:58.637Z,29.10
2017-10-26T11:14:27.664Z,31.50
2017-10-26T11:16:56.031Z,28.90
2017-10-26T11:19:24.680Z,30.13
2017-10-26T11:21:52.224Z,28.87
2017-10-26T11:24:20.315Z,28.80
2017-10-26T11:26:47.848Z,27.03
2017-10-26T11:29:15.376Z,27.70
2017-10-26T11:31:42.906Z,28.60
2017-10-26T11:34:11.049Z,30.40
2017-10-26T11:36:38.893Z,29.93
2017-10-26T11:39:07.925Z,32.03
2017-10-26T11:41:35.490Z,32.10
2017-10-26T11:44:03.040Z,29.90
2017-10-26T11:46:30.724Z,33.00
2017-10-26T11:48:59.056Z,27.37
2017-10-26T11:51:27.537Z,29.50
2017-10-26T11:53:55.737Z,28.00
2017-10-26T11:56:23.278Z,29.80
2017-10-26T11:58:50.834Z,27.30
2017-10-26T12:01:19.731Z,32.10
2017-10-26T12:03:47.311Z,27.10
2017-10-26T12:06:14.822Z,25.93
2017-10-26T12:08:43.099Z,27.40
2017-10-26T12:11:10.611Z,25.40
2017-10-26T12:13:38.709Z,25.43
2017-10-26T12:16:06.223Z,27.60
2017-10-26T12:18:33.861Z,27.30
2017-10-26T12:21:02.174Z,26.27
2017-10-26T12:23:29.708Z,28.90
2017-10-26T12:25:57.979Z,26.27
2017-10-26T12:28:27.002Z,23.87
2017-10-26T12:30:55.053Z,25.67
2017-10-26T12:33:22.588Z,25.63
2017-10-26T12:35:50.905Z,33.90
2017-10-26T12:38:18.679Z,25.40
2017-10-26T12:40:46.235Z,23.10
2017-10-26T12:43:13.794Z,24.10
2017-10-26T12:45:42.585Z,22.67
2017-10-26T12:48:10.102Z,23.20
2017-10-26T12:50:39.254Z,21.57
2017-10-26T12:53:06.775Z,26.27
2017-10-26T12:55:36.406Z,23.20
2017-10-26T12:58:03.942Z,23.80
2017-10-26T13:00:32.245Z,24.20
2017-10-26T13:02:59.906Z,22.50
2017-10-26T13:05:27.435Z,22.20
2017-10-26T13:07:55.717Z,23.40
2017-10-26T13:10:23.247Z,21.40
2017-10-26T13:12:51.540Z,20.43
2017-10-26T13:15:19.959Z,19.03
2017-10-26T13:17:47.520Z,18.20
2017-10-26T13:20:15.078Z,19.37
2017-10-26T13:22:42.612Z,20.63
2017-10-26T13:25:10.876Z,18.33
2017-10-26T13:27:39.168Z,18.80
2017-10-26T13:30:06.688Z,20.33
2017-10-26T13:32:34.965Z,16.87
2017-10-26T13:35:02.493Z,17.13
2017-10-26T13:37:30.015Z,15.40
2017-10-26T13:39:57.551Z,17.90
2017-10-26T13:42:26.751Z,16.70
2017-10-26T13:44:55.076Z,19.20
2017-10-26T13:47:22.611Z,16.93
2017-10-26T13:49:50.160Z,17.43
2017-10-26T13:52:18.777Z,17.73
2017-10-26T13:54:46.347Z,17.77
2017-10-26T13:57:13.943Z,16.90
2017-10-26T13:59:42.544Z,16.30
2017-10-26T14:02:10.876Z,19.27
2017-10-26T14:04:38.441Z,17.50
2017-10-26T14:07:05.948Z,22.13
2017-10-26T14:09:34.259Z,17.80
2017-10-26T14:12:02.414Z,16.93
2017-10-26T14:14:32.730Z,15.63
2017-10-26T14:17:01.655Z,16.93
2017-10-26T14:19:30.326Z,23.83
2017-10-26T14:21:58.911Z,17.13
2017-10-26T14:24:27.700Z,21.07
2017-10-26T14:26:56.605Z,18.67
2017-10-26T14:29:25.993Z,19.43
2017-10-26T14:31:54.884Z,18.73
2017-10-26T14:34:22.955Z,15.93
2017-10-26T14:36:51.235Z,17.90
2017-10-26T14:39:20.430Z,20.80
2017-10-26T14:41:50.140Z,22.60
2017-10-26T14:44:19.645Z,22.20
2017-10-26T14:46:49.198Z,21.83
2017-10-26T14:49:18.963Z,19.87
2017-10-26T14:51:48.570Z,21.40
2017-10-26T14:54:18.384Z,25.23
2017-10-26T14:56:47.889Z,22.20
2017-10-26T14:59:16.676Z,22.50
2017-10-26T15:01:46.488Z,23.43
2017-10-26T15:04:16.098Z,23.83
2017-10-26T15:06:46.281Z,29.00
2017-10-26T15:09:15.005Z,21.03
2017-10-26T15:11:44.509Z,22.83
2017-10-26T15:14:14.117Z,21.97
2017-10-26T15:16:43.622Z,24.50
2017-10-26T15:19:12.313Z,22.00
2017-10-26T15:21:41.916Z,25.40
2017-10-26T15:24:11.422Z,25.30
2017-10-26T15:26:40.107Z,23.33
2017-10-26T15:29:10.868Z,23.63
2017-10-26T15:31:39.836Z,22.83
2017-10-26T15:34:08.731Z,24.07
2017-10-26T15:36:37.719Z,22.67
2017-10-26T15:39:06.405Z,25.00
2017-10-26T15:41:35.693Z,22.80
2017-10-26T15:44:04.595Z,29.10
2017-10-26T15:46:33.444Z,24.03
2017-10-26T15:49:03.137Z,21.67
2017-10-26T15:51:32.088Z,25.57
2017-10-26T15:54:02.157Z,25.10
2017-10-26T15:56:30.790Z,25.13
2017-10-26T15:59:01.831Z,23.17
2017-10-26T16:01:31.248Z,32.90
2017-10-26T16:04:01.968Z,24.77
2017-10-26T16:06:30.785Z,24.07
2017-10-26T16:09:01.015Z,27.00
2017-10-26T16:11:30.690Z,28.50
2017-10-26T16:14:00.399Z,27.17
2017-10-26T16:16:30.314Z,32.47
2017-10-26T16:18:59.921Z,27.13
2017-10-26T16:21:30.759Z,29.60
2017-10-26T16:24:00.378Z,28.30
2017-10-26T16:26:29.040Z,28.73
2017-10-26T16:28:57.947Z,34.10
2017-10-26T16:31:27.139Z,33.17
2017-10-26T16:33:55.590Z,35.63
2017-10-26T16:36:25.133Z,39.73
2017-10-26T16:38:54.941Z,34.70
2017-10-26T16:41:23.625Z,32.57
2017-10-26T16:43:54.770Z,33.20
2017-10-26T16:46:24.174Z,35.17
2017-10-26T16:48:54.190Z,38.13
2017-10-26T16:51:22.977Z,37.80
2017-10-26T16:53:51.664Z,39.93
2017-10-26T16:56:21.374Z,37.20
2017-10-26T16:58:50.367Z,45.10
2017-10-26T17:01:18.952Z,46.60
2017-10-26T17:03:48.359Z,39.53
2017-10-26T17:06:17.039Z,52.07
2017-10-26T17:08:46.442Z,48.47
2017-10-26T17:11:16.154Z,49.77
2017-10-26T17:13:45.345Z,47.43
2017-10-26T17:16:13.833Z,45.40
2017-10-26T17:18:42.619Z,47.60
2017-10-26T17:21:11.002Z,47.83
2017-10-26T17:23:39.481Z,51.60
2017-10-26T17:26:07.033Z,43.20
2017-10-26T17:28:34.570Z,50.30
2017-10-26T17:31:02.885Z,49.90
2017-10-26T17:33:30.501Z,52.50
2017-10-26T17:35:58.792Z,50.37
2017-10-26T17:38:26.417Z,57.63
2017-10-26T17:40:53.981Z,54.83
2017-10-26T17:43:22.287Z,64.77
2017-10-26T17:45:49.834Z,54.00
2017-10-26T17:48:18.251Z,53.53
2017-10-26T17:50:45.776Z,55.10
2017-10-26T17:53:14.077Z,55.20
2017-10-26T17:55:41.591Z,56.50
2017-10-26T17:58:10.625Z,57.70
2017-10-26T18:00:38.161Z,60.97
2017-10-26T18:03:06.435Z,61.10
2017-10-26T18:05:34.713Z,64.57
2017-10-26T18:08:03.023Z,61.40
2017-10-26T18:10:30.525Z,66.30
2017-10-26T18:12:58.026Z,47.27
2017-10-26T18:15:25.564Z,24.67
2017-10-26T18:17:54.016Z,19.73
2017-10-26T18:20:21.522Z,20.13
2017-10-26T18:22:49.104Z,25.57
2017-10-26T18:25:16.659Z,26.57
2017-10-26T18:27:44.390Z,20.90
2017-10-26T18:30:12.729Z,27.70
2017-10-26T18:32:40.264Z,26.43
2017-10-26T18:35:07.787Z,30.50
2017-10-26T18:37:36.712Z,30.67
2017-10-26T18:40:04.240Z,36.47
2017-10-26T18:42:32.547Z,32.17
2017-10-26T18:45:00.431Z,36.17
2017-10-26T18:47:27.945Z,40.87
2017-10-26T18:49:56.364Z,35.53
2017-10-26T18:52:24.120Z,35.30
2017-10-26T18:54:51.639Z,37.70
2017-10-26T18:57:19.914Z,36.07
2017-10-26T18:59:48.209Z,36.80
2017-10-26T19:02:15.731Z,38.47
2017-10-26T19:04:43.272Z,45.20
2017-10-26T19:07:10.810Z,38.07
2017-10-26T19:09:38.313Z,43.60
2017-10-26T19:12:07.423Z,47.17
2017-10-26T19:14:35.708Z,39.37
2017-10-26T19:17:03.987Z,41.83
2017-10-26T19:19:32.283Z,40.50
2017-10-26T19:21:59.828Z,46.77
2017-10-26T19:24:27.345Z,42.50
2017-10-26T19:26:54.891Z,42.10
2017-10-26T19:29:22.401Z,43.83
2017-10-26T19:31:50.669Z,44.13
2017-10-26T19:34:18.964Z,47.50
2017-10-26T19:36:46.472Z,43.83
2017-10-26T19:39:14.045Z,48.50
2017-10-26T19:41:41.607Z,44.77
2017-10-26T19:44:09.135Z,42.00
2017-10-26T19:46:36.792Z,44.67
2017-10-26T19:49:04.765Z,42.70
2017-10-26T19:51:32.311Z,46.70
2017-10-26T19:53:59.870Z,48.80
2017-10-26T19:56:27.711Z,44.40
2017-10-26T19:58:55.239Z,43.87
2017-10-26T20:01:23.096Z,44.30
2017-10-26T20:03:51.451Z,43.97
2017-10-26T20:06:19.117Z,44.87
2017-10-26T20:08:47.450Z,42.60
2017-10-26T20:11:15.159Z,45.07
2017-10-26T20:13:42.705Z,44.80
2017-10-26T20:16:10.278Z,43.20
2017-10-26T20:18:37.821Z,43.63
2017-10-26T20:21:05.557Z,47.27
2017-10-26T20:23:33.118Z,47.03
2017-10-26T20:26:01.432Z,40.37
2017-10-26T20:28:28.953Z,41.90
2017-10-26T20:30:57.566Z,38.67
2017-10-26T20:33:25.119Z,42.87
2017-10-26T20:35:52.657Z,36.43
2017-10-26T20:38:20.173Z,35.87
2017-10-26T20:40:47.739Z,41.53
2017-10-26T20:43:15.263Z,33.97
2017-10-26T20:45:42.769Z,34.30
2017-10-26T20:48:10.296Z,39.40
2017-10-26T20:50:43.496Z,27.70
2017-10-26T20:53:16.639Z,36.80
2017-10-26T20:55:49.793Z,32.50
2017-10-26T20:58:23.977Z,33.77
2017-10-26T21:00:57.254Z,36.53
2017-10-26T21:06:27.394Z,32.90
2017-10-26T21:09:00.521Z,34.30
2017-10-26T21:11:34.159Z,34.37
2017-10-26T21:14:07.643Z,32.43
2017-10-26T21:16:35.196Z,39.97
2017-10-26T21:19:02.712Z,38.27
2017-10-26T21:21:30.213Z,36.97
2017-10-26T21:23:57.773Z,40.07
2017-10-26T21:26:25.296Z,40.03
2017-10-26T21:28:52.803Z,47.03
2017-10-26T21:31:21.092Z,39.90
2017-10-26T21:33:52.211Z,42.63
2017-10-26T21:36:20.526Z,43.70
2017-10-26T21:38:48.068Z,42.10
2017-10-26T21:41:16.359Z,44.33
2017-10-26T21:43:44.638Z,41.93
2017-10-26T21:46:12.159Z,47.17
2017-10-26T21:48:39.680Z,43.40
2017-10-26T21:51:07.189Z,47.67
2017-10-26T21:53:35.577Z,39.33
2017-10-26T21:56:03.134Z,41.37
2017-10-26T21:58:31.414Z,41.00
2017-10-26T22:00:58.966Z,40.13
2017-10-26T22:03:26.637Z,39.40
2017-10-26T22:05:54.157Z,38.67
2017-10-26T22:08:21.693Z,39.17
2017-10-26T22:10:49.255Z,39.60
2017-10-26T22:13:16.777Z,39.73
2017-10-26T22:15:45.078Z,40.40
2017-10-26T22:18:12.597Z,26.73
2017-10-26T22:20:42.004Z,27.37
2017-10-26T22:23:11.048Z,37.47
2017-10-26T22:25:38.603Z,27.27
2017-10-26T22:28:06.136Z,32.10
2017-10-26T22:30:34.132Z,32.30
2017-10-26T22:33:01.641Z,35.00
2017-10-26T22:35:29.972Z,36.50
2017-10-26T22:37:57.517Z,38.20
2017-10-26T22:40:25.041Z,38.17
2017-10-26T22:42:53.777Z,37.33
2017-10-26T22:45:21.336Z,35.83
2017-10-26T22:47:48.849Z,44.70
2017-10-26T22:50:17.164Z,39.57
2017-10-26T22:52:45.035Z,27.23
2017-10-26T22:55:12.559Z,25.27
2017-10-26T22:57:40.217Z,22.10
2017-10-26T23:00:08.632Z,20.10
2017-10-26T23:02:36.969Z,29.13
2017-10-26T23:05:05.264Z,21.47
2017-10-26T23:07:32.776Z,24.10
2017-10-26T23:10:00.276Z,28.90
2017-10-26T23:12:27.811Z,26.33
2017-10-26T23:14:56.139Z,28.67
2017-10-26T23:17:23.671Z,36.20
2017-10-26T23:19:51.200Z,30.70
2017-10-26T23:22:18.697Z,33.07
2017-10-26T23:24:46.212Z,34.93
2017-10-26T23:27:14.523Z,41.50
2017-10-26T23:29:42.061Z,35.10
2017-10-26T23:32:09.581Z,31.40
2017-10-26T23:34:37.662Z,37.67
2017-10-26T23:37:05.213Z,33.87
2017-10-26T23:39:32.724Z,36.67
2017-10-26T23:42:01.012Z,39.07
2017-10-26T23:44:28.571Z,31.80
2017-10-26T23:46:56.080Z,40.93
2017-10-26T23:49:23.615Z,37.40
2017-10-26T23:51:51.702Z,31.67
2017-10-26T23:54:19.289Z,29.63
2017-10-26T23:56:46.814Z,35.80
2017-10-26T23:59:14.335Z,37.57
